Time;durP1;ratioP1;P1;durP2;ratioP2;P2;SDS_P1;SDS_P2;PMS_P1;PMS_P2;Temp;Humidity;BMP_temperature;BMP_pressure;BME280_temperature;BME280_humidity;BME280_pressure;Samples;Min_cycle;Max_cycle;Signal;HPM_P1;HPM_P2
2022/08/27 00:00:46;;;;;;;24.67;20.38;;;;;;;;;;5095855;28;20118;-80
2022/08/27 00:03:13;;;;;;;32.17;23.52;;;;;;;;;;5094781;28;20045;-80
2022/08/27 00:05:41;;;;;;;38.35;26.40;;;;;;;;;;5094664;28;20113;-80
2022/08/27 00:08:11;;;;;;;35.13;24.90;;;;;;;;;;5094786;28;20040;-80
2022/08/27 00:10:39;;;;;;;25.55;22.30;;;;;;;;;;5094658;28;20056;-80
2022/08/27 00:13:06;;;;;;;33.55;24.25;;;;;;;;;;5094964;28;20112;-80
2022/08/27 00:15:34;;;;;;;38.47;25.90;;;;;;;;;;5094927;28;20413;-81
2022/08/27 00:18:01;;;;;;;37.83;26.70;;;;;;;;;;5096053;28;20048;-80
2022/08/27 00:20:29;;;;;;;42.72;28.20;;;;;;;;;;5094669;28;20039;-81
2022/08/27 00:22:56;;;;;;;31.13;24.25;;;;;;;;;;5096154;28;20051;-80
2022/08/27 00:25:24;;;;;;;37.53;26.15;;;;;;;;;;5094906;28;20059;-81
2022/08/27 00:27:51;;;;;;;32.85;24.98;;;;;;;;;;5095723;28;20044;-81
2022/08/27 00:30:20;;;;;;;29.83;23.27;;;;;;;;;;5096040;28;20048;-80
2022/08/27 00:32:48;;;;;;;39.90;27.70;;;;;;;;;;5094714;28;20047;-80
2022/08/27 00:35:16;;;;;;;28.40;24.02;;;;;;;;;;5095034;28;20052;-80
2022/08/27 00:37:43;;;;;;;32.72;25.45;;;;;;;;;;5095599;28;20052;-81
2022/08/27 00:40:14;;;;;;;36.83;26.30;;;;;;;;;;5094169;28;20051;-81
2022/08/27 00:42:44;;;;;;;30.38;24.45;;;;;;;;;;5094691;28;20527;-81
2022/08/27 00:45:14;;;;;;;33.15;24.25;;;;;;;;;;5095111;28;20054;-80
2022/08/27 00:47:44;;;;;;;34.97;27.58;;;;;;;;;;5095764;28;20044;-80
2022/08/27 00:50:17;;;;;;;36.55;26.50;;;;;;;;;;5095085;28;20044;-80
2022/08/27 00:52:46;;;;;;;29.40;24.08;;;;;;;;;;5096038;28;20060;-81
2022/08/27 00:55:18;;;;;;;32.60;25.10;;;;;;;;;;5095324;28;20048;-80
2022/08/27 00:57:47;;;;;;;30.23;24.20;;;;;;;;;;5095650;28;20105;-80
2022/08/27 01:00:16;;;;;;;27.75;23.25;;;;;;;;;;5096093;28;20048;-80
2022/08/27 01:02:45;;;;;;;27.55;23.15;;;;;;;;;;5094962;28;20432;-80
2022/08/27 01:05:14;;;;;;;27.38;23.05;;;;;;;;;;5093663;28;20102;-80
2022/08/27 01:07:42;;;;;;;28.05;23.58;;;;;;;;;;5094296;28;20056;-80
2022/08/27 01:10:11;;;;;;;25.45;21.05;;;;;;;;;;5094350;28;20048;-79
2022/08/27 01:12:39;;;;;;;25.10;19.80;;;;;;;;;;5094121;28;20060;-80
2022/08/27 01:15:08;;;;;;;21.10;18.55;;;;;;;;;;5094191;28;20051;-80
2022/08/27 01:17:39;;;;;;;21.10;18.77;;;;;;;;;;5093813;28;20056;-80
2022/08/27 01:20:10;;;;;;;25.90;20.60;;;;;;;;;;5092897;28;20054;-80
2022/08/27 01:22:37;;;;;;;22.67;19.38;;;;;;;;;;5092573;28;20051;-80
2022/08/27 01:25:08;;;;;;;24.00;19.63;;;;;;;;;;5092526;28;20055;-80
2022/08/27 01:27:37;;;;;;;21.90;18.05;;;;;;;;;;5092334;28;20043;-80
2022/08/27 01:30:05;;;;;;;21.60;18.48;;;;;;;;;;5092852;28;20054;-80
2022/08/27 01:32:33;;;;;;;21.67;19.00;;;;;;;;;;5092966;28;20052;-80
2022/08/27 01:35:03;;;;;;;21.10;17.52;;;;;;;;;;5094247;28;20048;-80
2022/08/27 01:37:32;;;;;;;24.85;19.05;;;;;;;;;;5092750;28;20059;-81
2022/08/27 01:40:00;;;;;;;20.98;17.67;;;;;;;;;;5091835;28;20051;-78
2022/08/27 01:42:36;;;;;;;25.00;19.48;;;;;;;;;;5092327;28;20040;-80
2022/08/27 01:45:06;;;;;;;22.33;18.75;;;;;;;;;;5092339;28;20048;-79
2022/08/27 01:47:34;;;;;;;22.45;19.50;;;;;;;;;;5092189;28;20101;-79
2022/08/27 01:50:03;;;;;;;21.63;19.33;;;;;;;;;;5088606;28;20501;-81
2022/08/27 01:52:30;;;;;;;21.73;19.42;;;;;;;;;;5073827;28;20048;-84
2022/08/27 01:54:58;;;;;;;24.02;19.45;;;;;;;;;;5074603;28;20102;-83
2022/08/27 01:57:25;;;;;;;23.08;20.67;;;;;;;;;;5072835;28;20056;-84
2022/08/27 01:59:55;;;;;;;23.30;20.90;;;;;;;;;;5073974;28;20094;-84
2022/08/27 02:02:23;;;;;;;23.08;20.55;;;;;;;;;;5073009;28;20094;-82
2022/08/27 02:04:50;;;;;;;24.10;21.52;;;;;;;;;;5073891;28;20045;-84
2022/08/27 02:07:18;;;;;;;30.50;23.98;;;;;;;;;;5073066;28;20048;-83
2022/08/27 02:09:45;;;;;;;31.25;23.50;;;;;;;;;;5074079;28;20052;-83
2022/08/27 02:12:12;;;;;;;34.63;26.08;;;;;;;;;;5073223;28;20459;-85
2022/08/27 02:14:39;;;;;;;32.55;24.73;;;;;;;;;;5072857;28;20052;-83
2022/08/27 02:17:07;;;;;;;40.72;29.08;;;;;;;;;;5073121;28;20129;-82
2022/08/27 02:19:34;;;;;;;35.22;26.45;;;;;;;;;;5072971;28;20098;-84
2022/08/27 02:22:01;;;;;;;36.40;26.20;;;;;;;;;;5074161;28;20040;-82
2022/08/27 02:24:28;;;;;;;38.60;27.25;;;;;;;;;;5072762;28;20045;-83
2022/08/27 02:26:56;;;;;;;33.08;25.77;;;;;;;;;;5073231;28;20417;-84
2022/08/27 02:29:24;;;;;;;31.88;25.58;;;;;;;;;;5072932;28;20064;-82
2022/08/27 02:31:51;;;;;;;33.45;25.38;;;;;;;;;;5072497;28;20048;-83
2022/08/27 02:34:18;;;;;;;36.45;26.65;;;;;;;;;;5072819;28;20049;-83
2022/08/27 02:36:46;;;;;;;46.35;30.08;;;;;;;;;;5072381;28;20413;-83
2022/08/27 02:39:13;;;;;;;32.83;25.92;;;;;;;;;;5072609;28;20053;-84
2022/08/27 02:41:40;;;;;;;33.63;24.92;;;;;;;;;;5072654;28;20118;-82
2022/08/27 02:44:08;;;;;;;30.40;25.05;;;;;;;;;;5072615;28;20231;-84
2022/08/27 02:46:37;;;;;;;38.15;26.45;;;;;;;;;;5072326;28;20054;-82
2022/08/27 02:49:05;;;;;;;31.98;23.83;;;;;;;;;;5073247;28;20416;-81
2022/08/27 02:51:32;;;;;;;29.77;23.42;;;;;;;;;;5095797;28;20044;-84
2022/08/27 02:54:00;;;;;;;27.77;22.92;;;;;;;;;;5096879;28;20416;-83
2022/08/27 02:56:28;;;;;;;34.85;24.95;;;;;;;;;;5096450;28;20048;-82
2022/08/27 02:58:55;;;;;;;29.17;24.75;;;;;;;;;;5096671;28;20455;-84
2022/08/27 03:01:22;;;;;;;33.22;25.20;;;;;;;;;;5096506;28;20044;-83
2022/08/27 03:03:50;;;;;;;47.10;29.23;;;;;;;;;;5095942;28;20044;-82
2022/08/27 03:06:17;;;;;;;32.30;24.48;;;;;;;;;;5095172;28;20546;-83
2022/08/27 03:08:44;;;;;;;34.35;25.45;;;;;;;;;;5096034;28;20097;-83
2022/08/27 03:11:20;;;;;;;38.08;25.95;;;;;;;;;;5096151;28;20048;-79
2022/08/27 03:13:47;;;;;;;40.03;27.52;;;;;;;;;;5096182;28;20393;-79
2022/08/27 03:16:14;;;;;;;31.58;25.58;;;;;;;;;;5096310;28;20115;-80
2022/08/27 03:18:41;;;;;;;29.35;24.33;;;;;;;;;;5096934;28;20131;-79
2022/08/27 03:21:15;;;;;;;29.75;24.15;;;;;;;;;;5097227;28;20461;-79
2022/08/27 03:23:43;;;;;;;28.10;23.05;;;;;;;;;;5097371;28;20044;-80
2022/08/27 03:26:11;;;;;;;28.88;23.50;;;;;;;;;;5100608;28;20101;-80
2022/08/27 03:28:38;;;;;;;38.55;25.65;;;;;;;;;;5101597;28;20562;-80
2022/08/27 03:31:08;;;;;;;27.40;23.23;;;;;;;;;;5101137;28;20078;-79
2022/08/27 03:33:37;;;;;;;31.20;24.13;;;;;;;;;;5101551;28;20052;-79
2022/08/27 03:36:05;;;;;;;20.77;17.90;;;;;;;;;;5101606;28;20048;-80
2022/08/27 03:38:32;;;;;;;19.77;17.67;;;;;;;;;;5097566;28;20048;-79
2022/08/27 03:41:00;;;;;;;20.90;18.70;;;;;;;;;;5098293;28;20542;-79
2022/08/27 03:43:28;;;;;;;20.75;18.50;;;;;;;;;;5098296;28;20436;-79
2022/08/27 03:45:55;;;;;;;19.00;17.00;;;;;;;;;;5097850;28;20040;-79
2022/08/27 03:48:28;;;;;;;20.65;17.42;;;;;;;;;;5098159;28;20108;-80
2022/08/27 03:50:56;;;;;;;24.92;18.98;;;;;;;;;;5097800;28;20120;-79
2022/08/27 03:53:23;;;;;;;25.55;18.33;;;;;;;;;;5097102;28;20043;-79
2022/08/27 03:55:50;;;;;;;23.15;17.20;;;;;;;;;;5097328;28;20044;-79
2022/08/27 03:58:18;;;;;;;21.75;17.63;;;;;;;;;;5099016;28;20524;-79
2022/08/27 04:00:45;;;;;;;23.17;19.30;;;;;;;;;;5097371;28;20052;-80
2022/08/27 04:03:13;;;;;;;23.17;18.13;;;;;;;;;;5098222;28;20405;-80
2022/08/27 04:05:41;;;;;;;17.83;15.68;;;;;;;;;;5101112;28;20056;-80
2022/08/27 04:08:12;;;;;;;17.25;14.95;;;;;;;;;;5097579;28;20071;-79
2022/08/27 04:10:40;;;;;;;18.08;14.20;;;;;;;;;;5096624;28;20496;-79
2022/08/27 04:13:07;;;;;;;15.02;13.13;;;;;;;;;;5097519;28;20101;-80
2022/08/27 04:15:34;;;;;;;16.30;11.45;;;;;;;;;;5097861;28;20047;-79
2022/08/27 04:18:06;;;;;;;11.35;10.05;;;;;;;;;;5098117;28;20048;-79
2022/08/27 04:20:34;;;;;;;13.82;10.73;;;;;;;;;;5098831;28;20496;-79
2022/08/27 04:23:02;;;;;;;11.18;9.93;;;;;;;;;;5098853;28;20048;-79
2022/08/27 04:25:29;;;;;;;13.00;9.20;;;;;;;;;;5081012;28;20048;-79
2022/08/27 04:27:57;;;;;;;9.68;7.97;;;;;;;;;;5081449;28;20493;-79
2022/08/27 04:30:24;;;;;;;10.23;9.23;;;;;;;;;;5085385;28;20082;-79
2022/08/27 04:32:51;;;;;;;9.35;8.38;;;;;;;;;;5081517;28;20044;-79
2022/08/27 04:35:18;;;;;;;12.25;8.18;;;;;;;;;;5081392;28;20137;-79
2022/08/27 04:37:46;;;;;;;12.25;9.27;;;;;;;;;;5082095;28;20044;-80
2022/08/27 04:40:13;;;;;;;16.13;9.95;;;;;;;;;;5082815;28;20081;-79
2022/08/27 04:42:41;;;;;;;12.95;9.43;;;;;;;;;;5086070;28;20044;-79
2022/08/27 04:45:08;;;;;;;12.32;9.30;;;;;;;;;;5100052;28;20052;-80
2022/08/27 04:47:36;;;;;;;10.77;8.63;;;;;;;;;;5081039;28;20074;-79
2022/08/27 04:50:04;;;;;;;12.45;9.30;;;;;;;;;;5081617;28;20563;-78
2022/08/27 04:52:33;;;;;;;12.02;8.95;;;;;;;;;;5065291;22;20055;-82
2022/08/27 04:55:07;;;;;;;12.85;9.75;;;;;;;;;;5036954;28;20058;-82
2022/08/27 04:57:36;;;;;;;9.55;8.65;;;;;;;;;;5038656;28;20103;-82
2022/08/27 05:00:05;;;;;;;10.70;8.35;;;;;;;;;;5021811;28;20084;-82
2022/08/27 05:02:33;;;;;;;13.82;9.68;;;;;;;;;;5022125;28;20049;-82
2022/08/27 05:05:00;;;;;;;12.57;9.55;;;;;;;;;;5022751;28;20080;-82
2022/08/27 05:07:27;;;;;;;15.30;9.50;;;;;;;;;;5022195;28;20103;-82
2022/08/27 05:09:54;;;;;;;9.70;8.68;;;;;;;;;;5040771;28;20066;-83
2022/08/27 05:12:22;;;;;;;9.77;8.38;;;;;;;;;;5024140;28;20103;-82
2022/08/27 05:14:49;;;;;;;15.52;9.27;;;;;;;;;;5018586;28;20053;-82
2022/08/27 05:17:17;;;;;;;10.52;8.98;;;;;;;;;;5019520;28;20049;-82
2022/08/27 05:19:44;;;;;;;12.80;8.98;;;;;;;;;;5019999;28;20107;-82
2022/08/27 05:22:11;;;;;;;11.25;8.00;;;;;;;;;;5020518;28;20042;-82
2022/08/27 05:24:38;;;;;;;10.23;8.80;;;;;;;;;;5020359;28;20407;-81
2022/08/27 05:27:06;;;;;;;14.80;9.48;;;;;;;;;;5039816;28;20053;-82
2022/08/27 05:29:35;;;;;;;9.95;8.30;;;;;;;;;;5040075;28;20060;-82
2022/08/27 05:32:03;;;;;;;8.80;7.90;;;;;;;;;;5040425;28;20053;-82
2022/08/27 05:34:31;;;;;;;11.93;9.38;;;;;;;;;;5021551;28;20050;-81
2022/08/27 05:36:58;;;;;;;18.58;10.80;;;;;;;;;;5022238;28;20054;-81
2022/08/27 05:39:25;;;;;;;15.35;10.60;;;;;;;;;;5040620;28;20458;-81
2022/08/27 05:41:56;;;;;;;20.75;18.50;;;;;;;;;;5023504;28;20465;-82
2022/08/27 05:44:23;;;;;;;23.38;18.05;;;;;;;;;;5023879;28;20233;-82
2022/08/27 05:47:07;;;;;;;28.67;19.05;;;;;;;;;;5026711;28;20042;-83
2022/08/27 05:49:36;;;;;;;24.20;17.95;;;;;;;;;;5021311;28;20080;-83
2022/08/27 05:52:10;;;;;;;24.77;15.98;;;;;;;;;;5034171;28;20528;-82
2022/08/27 05:54:37;;;;;;;;;;;;;;;;;;5059969;28;20045;-82
2022/08/27 05:57:05;;;;;;;17.08;12.20;;;;;;;;;;5044081;28;19928;-83
2022/08/27 06:02:19;;;;;;;14.98;12.43;;;;;;;;;;5060399;28;20465;-83
2022/08/27 06:04:47;;;;;;;16.65;12.80;;;;;;;;;;5055954;28;20111;-83
2022/08/27 06:07:14;;;;;;;16.02;13.68;;;;;;;;;;5055849;28;20049;-83
2022/08/27 06:09:42;;;;;;;20.00;12.88;;;;;;;;;;5056635;28;20111;-83
2022/08/27 06:12:09;;;;;;;27.40;17.38;;;;;;;;;;5056454;28;20049;-83
2022/08/27 06:14:37;;;;;;;19.17;14.63;;;;;;;;;;5057095;28;20107;-84
2022/08/27 06:17:05;;;;;;;23.63;16.30;;;;;;;;;;5057573;28;20045;-84
2022/08/27 06:19:33;;;;;;;19.52;14.95;;;;;;;;;;5059520;28;20049;-84
2022/08/27 06:22:01;;;;;;;24.52;15.88;;;;;;;;;;5059906;28;20055;-84
2022/08/27 06:24:38;;;;;;;30.48;18.23;;;;;;;;;;5059558;28;20037;-86
2022/08/27 06:27:05;;;;;;;21.15;16.40;;;;;;;;;;5064074;28;20045;-84
2022/08/27 06:29:33;;;;;;;22.33;16.77;;;;;;;;;;5066288;28;20134;-84
2022/08/27 06:32:01;;;;;;;25.52;17.23;;;;;;;;;;5060633;28;20056;-84
2022/08/27 06:34:28;;;;;;;30.67;18.08;;;;;;;;;;5061486;28;20049;-85
2022/08/27 06:36:55;;;;;;;23.17;17.60;;;;;;;;;;5062845;28;20053;-84
2022/08/27 06:39:23;;;;;;;22.38;17.63;;;;;;;;;;5060819;28;20056;-84
2022/08/27 06:41:50;;;;;;;19.92;16.33;;;;;;;;;;5059741;28;20056;-83
2022/08/27 06:44:17;;;;;;;17.35;15.55;;;;;;;;;;5061554;28;20044;-81
2022/08/27 06:46:44;;;;;;;24.60;16.90;;;;;;;;;;5061927;28;20080;-82
2022/08/27 06:49:12;;;;;;;24.83;16.92;;;;;;;;;;5062121;28;20409;-82
2022/08/27 06:51:43;;;;;;;19.83;13.43;;;;;;;;;;5062859;28;20067;-81
2022/08/27 06:54:11;;;;;;;16.55;13.25;;;;;;;;;;5051022;28;20091;-81
2022/08/27 06:56:41;;;;;;;15.82;12.45;;;;;;;;;;5068195;28;20080;-81
2022/08/27 06:59:10;;;;;;;15.77;12.57;;;;;;;;;;5044616;28;20053;-81
2022/08/27 07:01:39;;;;;;;14.98;13.23;;;;;;;;;;5039865;22;20067;-78
2022/08/27 07:04:08;;;;;;;18.95;13.93;;;;;;;;;;5020851;28;20409;-77
2022/08/27 07:06:36;;;;;;;15.57;12.73;;;;;;;;;;5019062;28;20045;-78
2022/08/27 07:09:03;;;;;;;15.18;13.50;;;;;;;;;;5016470;28;20046;-78
2022/08/27 07:11:31;;;;;;;17.48;13.73;;;;;;;;;;5016123;28;20062;-78
2022/08/27 07:13:58;;;;;;;15.68;13.73;;;;;;;;;;5026936;23;20121;-84
2022/08/27 07:16:27;;;;;;;18.13;14.00;;;;;;;;;;5075671;28;20415;-84
2022/08/27 07:18:55;;;;;;;19.50;13.40;;;;;;;;;;5058509;28;20048;-85
2022/08/27 07:21:26;;;;;;;15.20;13.30;;;;;;;;;;5058231;28;20136;-85
2022/08/27 07:23:54;;;;;;;17.95;13.70;;;;;;;;;;5057853;28;20079;-85
2022/08/27 07:26:22;;;;;;;16.63;14.90;;;;;;;;;;5057865;28;20083;-84
2022/08/27 07:28:49;;;;;;;19.90;15.27;;;;;;;;;;5058168;28;20080;-84
2022/08/27 07:31:18;;;;;;;18.33;15.65;;;;;;;;;;5057887;28;20049;-84
2022/08/27 07:33:46;;;;;;;20.30;16.02;;;;;;;;;;5057820;28;20625;-84
2022/08/27 07:36:20;;;;;;;16.40;13.05;;;;;;;;;;5074462;28;20053;-84
2022/08/27 07:38:49;;;;;;;14.65;12.98;;;;;;;;;;5075425;28;20121;-84
2022/08/27 07:41:27;;;;;;;14.50;11.73;;;;;;;;;;5059692;28;20507;-84
2022/08/27 07:46:44;;;;;;;10.57;9.52;;;;;;;;;;5080239;28;20044;-86
2022/08/27 07:49:14;;;;;;;9.90;9.00;;;;;;;;;;5064678;28;20045;-87
2022/08/27 07:51:41;;;;;;;10.32;9.02;;;;;;;;;;5066603;28;20106;-86
2022/08/27 07:54:08;;;;;;;11.30;10.10;;;;;;;;;;5066125;28;20487;-85
2022/08/27 07:56:36;;;;;;;13.68;11.75;;;;;;;;;;5062885;28;20055;-85
2022/08/27 07:59:03;;;;;;;12.82;11.23;;;;;;;;;;5061560;28;20419;-84
2022/08/27 08:01:30;;;;;;;11.23;10.13;;;;;;;;;;5060963;28;20080;-85
2022/08/27 08:03:57;;;;;;;11.02;9.93;;;;;;;;;;5089961;28;20044;-85
2022/08/27 08:06:25;;;;;;;11.15;9.55;;;;;;;;;;5076455;28;20651;-85
2022/08/27 08:08:52;;;;;;;10.35;9.32;;;;;;;;;;5070204;28;20048;-85
2022/08/27 08:11:20;;;;;;;9.52;8.60;;;;;;;;;;5078299;28;20075;-85
2022/08/27 08:13:47;;;;;;;7.93;7.30;;;;;;;;;;5077435;28;20064;-85
2022/08/27 08:16:15;;;;;;;8.60;7.82;;;;;;;;;;5067322;28;20250;-85
2022/08/27 08:18:42;;;;;;;8.90;8.10;;;;;;;;;;5064297;28;20060;-85
2022/08/27 08:21:11;;;;;;;9.15;8.25;;;;;;;;;;5064292;28;20067;-85
2022/08/27 08:23:42;;;;;;;9.25;8.40;;;;;;;;;;5067046;28;20052;-86
2022/08/27 08:26:11;;;;;;;11.15;9.77;;;;;;;;;;5067815;28;20064;-86
2022/08/27 08:28:39;;;;;;;10.07;9.07;;;;;;;;;;5066523;28;20055;-86
2022/08/27 08:31:06;;;;;;;16.48;11.23;;;;;;;;;;5064292;28;20048;-85
2022/08/27 08:33:34;;;;;;;21.08;13.88;;;;;;;;;;5062266;28;20066;-86
2022/08/27 08:36:03;;;;;;;20.60;14.77;;;;;;;;;;5065456;28;20061;-85
2022/08/27 08:38:30;;;;;;;12.07;10.35;;;;;;;;;;5066732;28;20044;-86
2022/08/27 08:40:58;;;;;;;12.25;9.82;;;;;;;;;;5063104;28;20067;-86
2022/08/27 08:43:29;;;;;;;8.40;7.47;;;;;;;;;;5063476;28;20045;-86
2022/08/27 08:46:00;;;;;;;7.43;6.75;;;;;;;;;;5062786;28;20044;-86
2022/08/27 08:48:28;;;;;;;6.07;5.57;;;;;;;;;;5062771;28;20105;-86
2022/08/27 08:51:01;;;;;;;5.75;5.25;;;;;;;;;;5061009;28;20063;-86
2022/08/27 08:53:42;;;;;;;6.25;5.65;;;;;;;;;;5059578;28;20048;-86
2022/08/27 08:56:12;;;;;;;5.93;4.95;;;;;;;;;;5057945;28;20076;-86
2022/08/27 08:58:47;;;;;;;8.35;7.47;;;;;;;;;;5058289;28;20079;-86
2022/08/27 09:01:18;;;;;;;10.30;7.25;;;;;;;;;;5057517;28;20503;-86
2022/08/27 09:03:56;;;;;;;25.52;22.92;;;;;;;;;;5057793;28;20139;-86
2022/08/27 09:06:24;;;;;;;23.45;20.95;;;;;;;;;;5074313;28;20052;-85
2022/08/27 09:08:51;;;;;;;13.88;10.48;;;;;;;;;;5074860;28;20064;-85
2022/08/27 09:11:24;;;;;;;6.90;6.30;;;;;;;;;;5060219;28;20106;-85
2022/08/27 09:13:54;;;;;;;5.97;5.50;;;;;;;;;;5062058;28;20083;-86
2022/08/27 09:16:22;;;;;;;7.45;6.68;;;;;;;;;;5061878;28;20106;-86
2022/08/27 09:18:49;;;;;;;7.13;6.55;;;;;;;;;;5078072;28;20455;-85
2022/08/27 09:21:18;;;;;;;7.60;6.15;;;;;;;;;;5077566;28;20041;-85
2022/08/27 09:23:54;;;;;;;7.38;6.53;;;;;;;;;;5060838;28;20108;-86
2022/08/27 09:26:24;;;;;;;25.65;23.05;;;;;;;;;;5059052;28;20075;-86
2022/08/27 09:32:05;;;;;;;13.80;12.50;;;;;;;;;;5078421;28;20109;-85
2022/08/27 09:34:37;;;;;;;7.22;6.53;;;;;;;;;;5061854;28;20090;-86
2022/08/27 09:37:16;;;;;;;6.55;6.03;;;;;;;;;;5079177;28;20053;-86
2022/08/27 09:39:47;;;;;;;8.30;7.50;;;;;;;;;;5063621;28;20053;-85
2022/08/27 09:42:23;;;;;;;7.00;6.30;;;;;;;;;;5081413;28;20044;-85
2022/08/27 09:44:53;;;;;;;7.38;6.72;;;;;;;;;;5062387;28;20048;-86
2022/08/27 09:47:20;;;;;;;9.15;8.30;;;;;;;;;;5061264;28;20053;-86
2022/08/27 09:49:47;;;;;;;8.77;7.88;;;;;;;;;;5059397;28;20068;-86
2022/08/27 09:52:30;;;;;;;7.15;6.45;;;;;;;;;;5061058;28;20422;-86
2022/08/27 09:55:03;;;;;;;10.20;9.20;;;;;;;;;;5075964;28;20166;-86
2022/08/27 09:57:33;;;;;;;13.00;11.68;;;;;;;;;;5077275;28;20048;-86
2022/08/27 10:00:01;;;;;;;12.48;11.20;;;;;;;;;;5059107;28;20059;-86
2022/08/27 10:02:29;;;;;;;10.55;9.55;;;;;;;;;;5060046;28;20096;-86
2022/08/27 10:04:57;;;;;;;8.65;7.88;;;;;;;;;;5060173;28;20059;-85
2022/08/27 10:07:44;;;;;;;9.27;8.38;;;;;;;;;;5060690;28;20040;-86
2022/08/27 10:10:14;;;;;;;10.77;9.02;;;;;;;;;;5061554;28;20074;-86
2022/08/27 10:12:54;;;;;;;9.43;7.75;;;;;;;;;;5061889;28;20056;-86
2022/08/27 10:15:23;;;;;;;12.15;8.27;;;;;;;;;;5058078;28;20111;-85
2022/08/27 10:18:05;;;;;;;8.32;7.55;;;;;;;;;;5062518;28;20055;-86
2022/08/27 10:20:51;;;;;;;7.35;6.65;;;;;;;;;;5060464;28;20064;-86
2022/08/27 10:23:26;;;;;;;6.88;6.28;;;;;;;;;;5060097;28;20144;-85
2022/08/27 10:25:53;;;;;;;8.38;7.57;;;;;;;;;;5058863;28;20060;-86
2022/08/27 10:28:30;;;;;;;8.50;7.70;;;;;;;;;;5062352;28;20048;-86
2022/08/27 10:31:13;;;;;;;10.32;8.80;;;;;;;;;;5062715;28;20053;-85
2022/08/27 10:33:48;;;;;;;9.63;8.73;;;;;;;;;;5060135;28;20049;-85
2022/08/27 10:36:24;;;;;;;10.40;9.27;;;;;;;;;;5061324;28;20049;-86
2022/08/27 10:38:58;;;;;;;9.15;8.43;;;;;;;;;;5059576;28;20052;-86
2022/08/27 10:41:30;;;;;;;11.10;8.00;;;;;;;;;;5057233;28;20045;-86
2022/08/27 10:44:12;;;;;;;8.13;7.43;;;;;;;;;;5058177;28;20049;-85
2022/08/27 10:46:50;;;;;;;9.73;8.73;;;;;;;;;;5060553;28;20045;-85
2022/08/27 10:49:37;;;;;;;12.73;9.68;;;;;;;;;;5057431;28;20045;-86
2022/08/27 10:52:17;;;;;;;7.95;7.25;;;;;;;;;;5063449;28;20455;-86
2022/08/27 10:55:09;;;;;;;9.25;8.38;;;;;;;;;;5060349;28;20049;-85
2022/08/27 10:57:41;;;;;;;9.80;8.13;;;;;;;;;;5056662;28;20094;-85
2022/08/27 11:00:30;;;;;;;12.13;9.40;;;;;;;;;;5056568;28;20049;-85
2022/08/27 11:03:02;;;;;;;11.82;9.30;;;;;;;;;;5055957;28;20041;-85
2022/08/27 11:05:30;;;;;;;10.15;8.82;;;;;;;;;;5056531;28;20102;-86
2022/08/27 11:08:19;;;;;;;13.13;11.23;;;;;;;;;;5055445;28;20107;-86
2022/08/27 11:10:48;;;;;;;11.27;10.02;;;;;;;;;;5054678;28;20080;-86
2022/08/27 11:13:21;;;;;;;14.45;10.88;;;;;;;;;;5058344;28;20538;-87
2022/08/27 11:15:50;;;;;;;11.23;10.13;;;;;;;;;;5059478;28;20099;-85
2022/08/27 11:18:27;;;;;;;12.88;9.80;;;;;;;;;;5058578;28;20053;-86
2022/08/27 11:21:00;;;;;;;12.85;10.38;;;;;;;;;;5058753;28;20056;-86
2022/08/27 11:23:27;;;;;;;;;;;;;;;;;;5058613;28;20076;-86
2022/08/27 11:26:02;;;;;;;18.13;10.50;;;;;;;;;;5058612;28;20383;-87
2022/08/27 11:28:30;;;;;;;11.35;9.32;;;;;;;;;;5056961;28;20053;-86
2022/08/27 11:31:08;;;;;;;11.30;8.77;;;;;;;;;;5057233;28;20049;-87
2022/08/27 11:33:42;;;;;;;18.70;8.95;;;;;;;;;;5056263;28;20045;-86
2022/08/27 11:36:30;;;;;;;16.25;9.23;;;;;;;;;;5057764;28;20080;-87
2022/08/27 11:39:01;;;;;;;11.55;8.80;;;;;;;;;;5055912;28;20067;-86
2022/08/27 11:41:40;;;;;;;15.10;8.70;;;;;;;;;;5054852;28;20088;-87
2022/08/27 11:44:12;;;;;;;9.70;8.40;;;;;;;;;;5055638;28;20411;-87
2022/08/27 11:46:45;;;;;;;10.65;9.38;;;;;;;;;;5054165;28;20470;-87
2022/08/27 11:49:23;;;;;;;12.17;10.00;;;;;;;;;;5054376;28;20048;-87
2022/08/27 11:51:56;;;;;;;12.23;9.55;;;;;;;;;;5054772;28;20106;-87
2022/08/27 11:54:26;;;;;;;14.18;9.45;;;;;;;;;;5057568;28;20060;-87
2022/08/27 11:56:54;;;;;;;13.13;9.10;;;;;;;;;;5057807;28;20049;-87
2022/08/27 11:59:21;;;;;;;11.32;9.23;;;;;;;;;;5060619;28;20052;-87
2022/08/27 12:01:52;;;;;;;14.85;12.00;;;;;;;;;;5061238;28;20053;-87
2022/08/27 12:04:23;;;;;;;12.30;10.80;;;;;;;;;;5063599;28;20079;-87
2022/08/27 12:06:52;;;;;;;9.90;8.85;;;;;;;;;;5064916;28;20053;-87
2022/08/27 12:09:23;;;;;;;16.08;10.05;;;;;;;;;;5073402;28;20041;-87
2022/08/27 12:12:08;;;;;;;11.38;8.40;;;;;;;;;;5059486;28;20048;-88
2022/08/27 12:14:48;;;;;;;8.65;7.65;;;;;;;;;;5056998;28;20084;-88
2022/08/27 12:17:35;;;;;;;11.52;8.30;;;;;;;;;;5056375;28;20089;-88
2022/08/27 12:20:13;;;;;;;13.65;9.07;;;;;;;;;;5056395;28;20053;-88
2022/08/27 12:25:59;;;;;;;13.85;6.93;;;;;;;;;;5062503;28;20136;-87
2022/08/27 12:28:27;;;;;;;8.10;6.75;;;;;;;;;;5057149;28;20053;-86
2022/08/27 12:30:54;;;;;;;9.55;7.15;;;;;;;;;;5055464;28;20052;-86
2022/08/27 12:33:39;;;;;;;10.57;7.78;;;;;;;;;;5055498;28;20464;-85
2022/08/27 12:36:13;;;;;;;11.00;7.43;;;;;;;;;;5054853;28;20107;-86
2022/08/27 12:38:46;;;;;;;9.30;6.85;;;;;;;;;;5054175;28;20478;-86
2022/08/27 12:41:24;;;;;;;10.15;6.10;;;;;;;;;;5055121;28;20080;-86
2022/08/27 12:44:01;;;;;;;9.55;7.50;;;;;;;;;;5053369;28;20080;-85
2022/08/27 12:46:28;;;;;;;8.65;6.30;;;;;;;;;;5055920;28;20055;-85
2022/08/27 12:48:58;;;;;;;7.85;6.85;;;;;;;;;;5060376;28;20064;-86
2022/08/27 12:51:45;;;;;;;8.88;7.22;;;;;;;;;;5059097;28;20484;-86
2022/08/27 12:54:31;;;;;;;8.48;6.63;;;;;;;;;;5061957;28;20049;-85
2022/08/27 12:57:05;;;;;;;7.35;6.22;;;;;;;;;;5064532;28;20045;-84
2022/08/27 12:59:51;;;;;;;7.43;6.47;;;;;;;;;;5063993;28;20049;-85
2022/08/27 13:02:33;;;;;;;6.93;6.05;;;;;;;;;;5056272;28;20045;-84
2022/08/27 13:05:03;;;;;;;9.68;6.57;;;;;;;;;;5054113;28;20072;-84
2022/08/27 13:07:40;;;;;;;13.77;6.07;;;;;;;;;;5056527;28;20466;-84
2022/08/27 13:10:44;;;;;;;13.52;7.03;;;;;;;;;;5055752;28;20049;-84
2022/08/27 13:13:13;;;;;;;13.07;6.13;;;;;;;;;;4959080;28;20526;-83
2022/08/27 13:15:43;;;;;;;12.35;7.10;;;;;;;;;;5038182;28;20292;-84
2022/08/27 13:18:10;;;;;;;10.50;6.10;;;;;;;;;;5053918;28;20049;-82
2022/08/27 13:20:39;;;;;;;11.82;6.15;;;;;;;;;;5053508;28;20146;-82
2022/08/27 13:23:12;;;;;;;8.60;5.15;;;;;;;;;;5053646;28;20500;-82
2022/08/27 13:26:18;;;;;;;11.25;6.25;;;;;;;;;;5053285;28;20488;-83
2022/08/27 13:28:45;;;;;;;10.75;6.22;;;;;;;;;;5012118;28;20061;-85
2022/08/27 13:31:13;;;;;;;11.40;7.85;;;;;;;;;;5055180;28;20071;-86
2022/08/27 13:33:41;;;;;;;11.50;8.10;;;;;;;;;;5053520;28;20052;-86
2022/08/27 13:36:09;;;;;;;12.43;8.45;;;;;;;;;;5053219;28;20052;-86
2022/08/27 13:38:39;;;;;;;10.13;7.57;;;;;;;;;;5058069;28;20049;-87
2022/08/27 13:41:09;;;;;;;16.35;9.48;;;;;;;;;;5059906;28;20079;-86
2022/08/27 13:43:42;;;;;;;9.57;8.38;;;;;;;;;;5053564;28;20052;-87
2022/08/27 13:46:14;;;;;;;11.20;9.40;;;;;;;;;;5057391;28;20072;-86
2022/08/27 13:48:43;;;;;;;11.63;9.70;;;;;;;;;;5057551;28;20569;-86
2022/08/27 13:51:12;;;;;;;13.85;9.63;;;;;;;;;;5055957;28;20068;-87
2022/08/27 13:56:34;;;;;;;12.53;9.17;;;;;;;;;;5060232;28;20079;-85
2022/08/27 13:59:09;;;;;;;12.00;9.63;;;;;;;;;;5063546;28;20053;-86
2022/08/27 14:01:41;;;;;;;12.43;8.55;;;;;;;;;;5063197;28;20051;-86
2022/08/27 14:04:19;;;;;;;9.60;8.65;;;;;;;;;;5060024;28;20060;-86
2022/08/27 14:06:47;;;;;;;8.52;7.32;;;;;;;;;;5062231;28;20061;-86
2022/08/27 14:09:20;;;;;;;11.13;7.68;;;;;;;;;;5061075;28;20079;-86
2022/08/27 14:11:48;;;;;;;;;;;;;;;;;;5060424;28;20049;-86
2022/08/27 14:14:16;;;;;;;8.40;7.57;;;;;;;;;;5078333;28;19943;-87
2022/08/27 14:16:43;;;;;;;12.18;9.10;;;;;;;;;;5062748;28;20044;-87
2022/08/27 14:19:46;;;;;;;13.90;8.93;;;;;;;;;;5062169;28;20049;-87
2022/08/27 14:22:16;;;;;;;9.25;8.32;;;;;;;;;;4964816;28;20433;-85
2022/08/27 14:24:43;;;;;;;9.27;8.38;;;;;;;;;;5045440;28;20049;-85
2022/08/27 14:27:12;;;;;;;10.82;8.88;;;;;;;;;;5061531;28;20048;-87
2022/08/27 14:29:40;;;;;;;15.93;10.05;;;;;;;;;;5061512;28;20052;-87
2022/08/27 14:32:07;;;;;;;11.25;9.90;;;;;;;;;;5068042;28;20053;-86
2022/08/27 14:34:35;;;;;;;10.45;9.45;;;;;;;;;;5064258;28;20052;-86
2022/08/27 14:37:02;;;;;;;11.77;10.68;;;;;;;;;;5058884;28;20496;-85
2022/08/27 14:39:30;;;;;;;11.38;9.00;;;;;;;;;;5059377;28;20069;-86
2022/08/27 14:41:59;;;;;;;12.43;11.10;;;;;;;;;;5055537;28;20049;-86
2022/08/27 14:44:26;;;;;;;5.10;4.70;;;;;;;;;;5058632;28;20068;-86
2022/08/27 14:46:54;;;;;;;6.53;5.85;;;;;;;;;;5060048;28;20053;-85
2022/08/27 14:49:27;;;;;;;4.20;3.80;;;;;;;;;;5067144;28;20049;-86
2022/08/27 14:51:54;;;;;;;5.40;4.68;;;;;;;;;;5063180;28;20056;-86
2022/08/27 14:54:21;;;;;;;4.45;4.15;;;;;;;;;;5060353;28;20049;-86
2022/08/27 14:56:56;;;;;;;3.83;3.53;;;;;;;;;;5059790;28;20057;-86
2022/08/27 14:59:23;;;;;;;3.50;3.30;;;;;;;;;;5060501;28;20080;-86